createdAt,value
2019-05-10T00:02:14.401Z,10.3
2019-05-10T00:07:16.860Z,10.2
2019-05-10T00:12:19.348Z,10.2
2019-05-10T00:17:21.826Z,10.2
2019-05-10T00:22:24.239Z,10.1
2019-05-10T00:27:26.691Z,10
2019-05-10T00:32:29.145Z,9.9
2019-05-10T00:37:31.663Z,9.9
2019-05-10T00:42:34.133Z,10
2019-05-10T00:47:36.604Z,10
2019-05-10T00:52:38.998Z,10
2019-05-10T00:57:41.428Z,10
2019-05-10T01:02:44.261Z,10
2019-05-10T01:07:46.371Z,9.9
2019-05-10T01:12:48.863Z,9.9
2019-05-10T01:17:51.279Z,9.9
2019-05-10T01:22:53.750Z,9.8
2019-05-10T01:27:56.239Z,9.8
2019-05-10T01:32:58.752Z,9.7
2019-05-10T01:38:01.124Z,9.6
2019-05-10T01:43:03.561Z,9.6
2019-05-10T01:48:06.036Z,9.7
2019-05-10T01:53:08.568Z,9.6
2019-05-10T01:58:10.926Z,9.6
2019-05-10T02:03:13.607Z,9.6
2019-05-10T02:08:15.888Z,9.6
2019-05-10T02:13:18.364Z,9.6
2019-05-10T02:18:20.912Z,9.5
2019-05-10T02:23:23.501Z,9.4
2019-05-10T02:28:25.746Z,9.4
2019-05-10T02:33:28.186Z,9.4
2019-05-10T02:38:30.585Z,9.4
2019-05-10T02:43:33.095Z,9.4
2019-05-10T02:48:35.537Z,9.4
2019-05-10T02:53:38.097Z,9.3
2019-05-10T02:58:40.544Z,9.3
2019-05-10T03:03:42.892Z,9.4
2019-05-10T03:08:45.366Z,9.4
2019-05-10T03:13:47.797Z,9.4
2019-05-10T03:18:50.259Z,9.5
2019-05-10T03:23:52.788Z,9.5
2019-05-10T03:29:00.030Z,9.5
2019-05-10T05:34:56.624Z,10.7
2019-05-10T05:39:59.644Z,10.5
2019-05-10T05:45:01.613Z,10.4
2019-05-10T05:50:04.101Z,10.3
2019-05-10T05:55:06.776Z,10.4
2019-05-10T06:00:09.205Z,10.4
2019-05-10T06:05:11.507Z,10.6
2019-05-10T06:10:19.752Z,10.9
2019-05-10T06:15:16.291Z,11
2019-05-10T06:20:18.814Z,11
2019-05-10T06:25:37.162Z,10.9
2019-05-10T06:30:23.728Z,10.9
2019-05-10T06:35:26.360Z,10.9
2019-05-10T06:45:31.016Z,10.9
2019-05-10T06:50:33.494Z,10.9
2019-05-10T06:55:36.020Z,11.3
2019-05-10T07:00:44.560Z,11.6
2019-05-10T07:05:41.022Z,11.9
2019-05-10T07:10:43.376Z,12.3
2019-05-10T07:15:45.835Z,12.7
2019-05-10T07:20:48.242Z,12.9
2019-05-10T07:25:50.685Z,13.1
2019-05-10T07:30:53.571Z,13.4
2019-05-10T07:35:55.630Z,14.1
2019-05-10T07:40:58.195Z,14.7
2019-05-10T07:46:06.019Z,15.4
2019-05-10T07:51:03.074Z,15.7
2019-05-10T07:56:06.488Z,16.3
2019-05-10T08:01:07.958Z,17.1
2019-05-10T08:06:10.337Z,19
2019-05-10T08:11:12.801Z,20.7
2019-05-10T08:16:20.120Z,21.1
2019-05-10T08:21:22.071Z,23.1
2019-05-10T08:26:24.188Z,24.6
2019-05-10T08:31:25.638Z,25.3
2019-05-10T08:36:25.314Z,25.3
2019-05-10T08:41:27.559Z,22.6
2019-05-10T08:46:40.016Z,20.2
2019-05-10T08:51:34.452Z,18.7
2019-05-10T08:56:35.061Z,18
2019-05-10T09:01:44.231Z,18.7
2019-05-10T09:06:41.798Z,18.2
2019-05-10T09:11:44.318Z,17.3
2019-05-10T09:16:54.295Z,16.8
2019-05-10T09:21:49.436Z,16.5
2019-05-10T09:26:52.641Z,19.6
2019-05-10T09:31:53.412Z,22.9
2019-05-10T09:36:54.632Z,21.7
2019-05-10T09:41:57.145Z,19.6
2019-05-10T09:47:01.874Z,17.5
2019-05-10T09:52:04.382Z,18
2019-05-10T09:57:04.494Z,21.4
2019-05-10T10:02:14.258Z,22.9
2019-05-10T10:07:09.387Z,24.3
2019-05-10T10:12:11.929Z,25
2019-05-10T10:17:17.240Z,24.9
2019-05-10T10:22:17.364Z,23.4
2019-05-10T10:27:19.199Z,21.1
2019-05-10T10:32:24.549Z,22.3
2019-05-10T10:37:28.250Z,25.6
2019-05-10T10:42:26.611Z,24.3
2019-05-10T10:52:31.454Z,21.9
2019-05-10T10:57:33.976Z,21.8
2019-05-10T11:02:36.428Z,22.6
2019-05-10T11:07:44.243Z,23.1
2019-05-10T11:12:41.475Z,24
2019-05-10T11:17:44.016Z,24.8
2019-05-10T11:22:49.505Z,24.9
2019-05-10T11:27:53.678Z,25.1
2019-05-10T11:32:51.551Z,25.5
2019-05-10T11:37:53.854Z,24.8
2019-05-10T11:42:56.084Z,22.2
2019-05-10T11:47:59.604Z,20.1
2019-05-10T11:53:01.086Z,18.4
2019-05-10T11:58:08.583Z,17.3
2019-05-10T12:03:11.122Z,18.4
2019-05-10T12:08:08.417Z,19.9
2019-05-10T12:13:18.457Z,20.6
2019-05-10T12:18:14.620Z,23.4
2019-05-10T12:26:38.406Z,23.5
2019-05-10T12:28:21.771Z,21.5
2019-05-10T12:33:24.825Z,20.3
2019-05-10T12:38:28.496Z,19.8
2019-05-10T12:43:25.545Z,19.5
2019-05-10T12:48:27.998Z,19
2019-05-10T12:53:31.503Z,19
2019-05-10T12:58:33.041Z,19.2
2019-05-10T13:03:35.426Z,19
2019-05-10T13:08:38.002Z,18.2
2019-05-10T13:13:40.414Z,18.5
2019-05-10T13:18:50.146Z,18.5
2019-05-10T13:23:45.234Z,18.9
2019-05-10T13:28:47.692Z,19.1
2019-05-10T13:33:50.124Z,18.8
2019-05-10T13:38:52.641Z,18.8
2019-05-10T13:43:58.706Z,18.8
2019-05-10T13:48:57.535Z,18.1
2019-05-10T13:54:00.885Z,17.6
2019-05-10T13:59:13.489Z,17.6
2019-05-10T14:04:04.988Z,17.9
2019-05-10T14:09:07.456Z,17.8
2019-05-10T14:14:14.383Z,17.7
2019-05-10T14:19:15.789Z,17.6
2019-05-10T14:24:15.679Z,17.7
2019-05-10T14:29:17.195Z,17.6
2019-05-10T14:34:19.630Z,17.1
2019-05-10T14:39:22.259Z,16.6
2019-05-10T14:44:25.028Z,16.7
2019-05-10T14:49:27.124Z,16.9
2019-05-10T14:54:42.497Z,17.3
2019-05-10T14:59:31.923Z,17.4
2019-05-10T15:04:49.674Z,17.6
2019-05-10T15:09:37.050Z,17.3
2019-05-10T15:14:39.283Z,17.1
2019-05-10T15:19:41.770Z,16.9
2019-05-10T15:29:46.740Z,16.4
2019-05-10T15:35:04.880Z,16.5
2019-05-10T15:44:54.204Z,16.1
2019-05-10T15:49:59.844Z,16
2019-05-10T15:54:59.145Z,16
2019-05-10T16:00:01.513Z,16.3
2019-05-10T16:05:03.912Z,16.6
2019-05-10T16:10:06.413Z,17
2019-05-10T16:15:13.510Z,17.4
2019-05-10T16:20:11.246Z,17.9
2019-05-10T16:25:13.690Z,18.2
2019-05-10T16:30:17.652Z,18.4
2019-05-10T16:35:21.580Z,18.4
2019-05-10T16:40:21.242Z,18.3
2019-05-10T16:45:23.625Z,18.1
2019-05-10T16:50:31.431Z,18
2019-05-10T16:55:28.464Z,17.9
2019-05-10T17:00:31.043Z,17.7
2019-05-10T17:05:33.413Z,17.4
2019-05-10T17:10:35.807Z,17.1
2019-05-10T17:15:39.664Z,16.8
2019-05-10T17:20:45.332Z,16.7
2019-05-10T17:25:43.197Z,16.4
2019-05-10T17:30:45.656Z,16.1
2019-05-10T17:35:48.155Z,15.7
2019-05-10T17:40:50.660Z,15.4
2019-05-10T17:45:53.055Z,15.1
2019-05-10T17:50:55.482Z,14.9
2019-05-10T17:56:02.526Z,14.7
2019-05-10T18:01:00.407Z,14.6
2019-05-10T18:06:02.871Z,14.4
2019-05-10T18:11:06.174Z,14.1
2019-05-10T18:16:09.336Z,13.8
2019-05-10T18:21:15.715Z,13.5
2019-05-10T18:26:12.703Z,13.3
2019-05-10T18:31:15.199Z,13
2019-05-10T18:36:17.627Z,12.7
2019-05-10T18:41:20.105Z,12.5
2019-05-10T18:46:24.553Z,12.1
2019-05-10T18:51:26.432Z,11.9
2019-05-10T18:56:31.118Z,11.6
2019-05-10T19:01:32.740Z,11.4
2019-05-10T19:06:32.361Z,11.1
2019-05-10T19:11:38.821Z,10.8
2019-05-10T19:16:37.271Z,10.5
2019-05-10T19:21:39.842Z,10.3
2019-05-10T19:26:42.309Z,10.1
2019-05-10T19:31:44.680Z,9.9
2019-05-10T19:36:47.484Z,9.8
2019-05-10T19:41:49.622Z,9.7
2019-05-10T19:46:52.014Z,9.7
2019-05-10T19:51:54.564Z,9.6
2019-05-10T19:56:56.930Z,9.5
2019-05-10T20:01:59.472Z,9.4
2019-05-10T20:07:02.157Z,9.2
2019-05-10T20:12:04.311Z,9.1
2019-05-10T20:17:06.941Z,9
2019-05-10T20:22:09.209Z,8.9
2019-05-10T20:32:14.203Z,8.6
2019-05-10T20:37:16.602Z,8.5
2019-05-10T20:42:19.105Z,8.5
2019-05-10T20:47:21.596Z,8.6
2019-05-10T20:52:24.059Z,8.7
2019-05-10T20:57:26.415Z,8.8
2019-05-10T21:02:28.881Z,8.9
2019-05-10T21:07:31.358Z,9
2019-05-10T21:12:34.251Z,9.1
2019-05-10T21:17:36.278Z,9.2
2019-05-10T21:22:38.842Z,9.2
2019-05-10T21:27:41.250Z,9.3
2019-05-10T21:32:43.907Z,9.3
2019-05-10T21:37:46.226Z,9.4
2019-05-10T21:42:48.686Z,9.4
2019-05-10T21:47:52.061Z,9.5
2019-05-10T21:52:53.648Z,9.5
2019-05-10T21:57:55.945Z,9.5
2019-05-10T22:02:58.391Z,9.5
2019-05-10T22:08:00.805Z,9.5
2019-05-10T22:13:03.331Z,9.4
2019-05-10T22:18:05.827Z,9.3
2019-05-10T22:23:08.182Z,9.3
2019-05-10T22:28:10.637Z,9.3
2019-05-10T22:33:13.424Z,9.2
2019-05-10T22:38:15.680Z,9.1
2019-05-10T22:43:18.341Z,9
2019-05-10T22:48:20.500Z,8.9
2019-05-10T22:53:22.967Z,8.7
2019-05-10T22:58:25.381Z,8.5
2019-05-10T23:03:27.905Z,8.3
2019-05-10T23:08:30.344Z,8.2
2019-05-10T23:13:32.802Z,8.1
2019-05-10T23:18:35.411Z,7.9
2019-05-10T23:23:37.767Z,7.8
2019-05-10T23:28:40.289Z,7.7
2019-05-10T23:33:42.791Z,7.6
2019-05-10T23:38:45.181Z,7.5
2019-05-10T23:43:47.497Z,7.5
2019-05-10T23:48:50.381Z,7.5
2019-05-10T23:53:52.578Z,7.4
2019-05-10T23:58:54.932Z,7.5
